Aérodrome :
LOGIN :

S'inscrire | Disclaimer

   EN    FR    IT 

 










Légende :    VFR   VFR Marginal   IFR   IFR Intensif   IFR Très Intensif
Visi : 
Plafond : 
>= 8 km
>= 3000ft
5 à 8 km
1000 à 3000 ft
1500m à 5 km
500 à 1000 ft
800 à 1500m
200 à 500 ft
< 800m
< 200 ft
Symboles :   Orages  Brouillard  Fortes neiges  Fortes précipitations  Vent > 20 kt
SIGMETs :   Divers  Orages  Givrage  Turbulence  Onde Orograph.  Cendres Volcan.







- Altitude de l'aérodrome : 74 ft
- Code IATA : NDZ


ETMN - Cuxhaven Nordholz Sea AB

DERNIER METAR :
  • 242020Z VRB02KT 8000 RA BKN013 BKN050 08/07 Q1011 GRN BLU TEMPO GRN

METARs EXPIRÉS :
  • 241920Z 26005KT 9000 -RA SCT030 BKN060 09/07 Q1011 BLU BLU TEMPO GRN
  • 241820Z 27006KT 9999 -RA FEW045 BKN060 09/06 Q1011 BLU BLU

TAF AMD TAF ETMN
Valide du 24 à 17h jusqu'au 25 à 02h UTC


241818Z 2417/2502 27005KT 8000 -RADZ SCT020 BKN030
TEMPO 2418/2502 17005KT 5000 DZRA SCT008 BKN012
Pas de NOTAMs connus pour ce terrain.



MET'MAP, la Météo Aéronautique d'un coup d'oeil ! - Copyright ORBIFLY Décembre 2007 - Disclaimer

ORBIFLY MET'MAP TEAM :

Programmation & Développement : Alexandra Zaïnal
Conception & Développement : Baudouin d'Aumeries
Co-Programmation & Développement : Marc-Olivier Méhu
Soutien technique & logistique : Manuel Goepfert

Contact : metmap@orbifly.com




SOURCES & CREDITS :

   NOAA